Time;durP1;ratioP1;P1;durP2;ratioP2;P2;SDS_P1;SDS_P2;PMS_P1;PMS_P2;Temp;Humidity;BMP_temperature;BMP_pressure;BME280_temperature;BME280_humidity;BME280_pressure;Samples;Min_cycle;Max_cycle;Signal;HPM_P1;HPM_P2
2021/11/07 00:06:54;;;;;;;;;;;10.20;99.90;;;;;;8358065;28;19936;-71
2021/11/07 00:11:00;;;;;;;;;;;10.20;99.90;;;;;;8376714;28;19925;-70
2021/11/07 00:15:02;;;;;;;;;;;10.20;99.90;;;;;;8367961;28;20709;-70
2021/11/07 00:27:26;;;;;;;;;;;10.30;99.90;;;;;;8362147;28;19928;-70
2021/11/07 00:53:09;;;;;;;;;;;10.50;99.90;;;;;;8322273;28;19936;-70
2021/11/07 00:57:37;;;;;;;;;;;10.60;99.90;;;;;;8348331;28;19936;-71
2021/11/07 01:01:42;;;;;;;;;;;10.60;99.90;;;;;;8371495;28;19920;-71
2021/11/07 01:05:44;;;;;;;;;;;10.60;99.90;;;;;;8368599;28;19924;-71
2021/11/07 01:09:45;;;;;;;;;;;10.70;99.90;;;;;;8384104;28;19920;-70
2021/11/07 01:13:47;;;;;;;;;;;10.70;99.90;;;;;;8355214;28;20365;-70
2021/11/07 01:17:48;;;;;;;;;;;10.70;99.90;;;;;;8353194;28;19921;-70
2021/11/07 01:21:50;;;;;;;;;;;10.70;99.90;;;;;;8361134;28;20342;-70
2021/11/07 01:25:58;;;;;;;;;;;10.70;99.90;;;;;;8365888;28;19920;-70
2021/11/07 01:30:02;;;;;;;;;;;10.80;99.90;;;;;;8351198;28;19921;-70
2021/11/07 01:34:04;;;;;;;;;;;10.80;99.90;;;;;;8377117;28;20398;-70
2021/11/07 01:42:33;;;;;;;;;;;10.90;99.90;;;;;;8381879;28;19920;-70
2021/11/07 01:46:34;;;;;;;;;;;10.90;99.90;;;;;;8371568;28;19937;-70
2021/11/07 01:50:41;;;;;;;;;;;10.90;99.90;;;;;;8382417;28;19920;-70
2021/11/07 01:55:02;;;;;;;;;;;11.00;99.90;;;;;;8380664;28;19935;-70
2021/11/07 01:59:04;;;;;;;;;;;11.00;99.90;;;;;;8374964;28;19929;-71
2021/11/07 02:03:06;;;;;;;;;;;11.00;99.90;;;;;;8354545;28;19925;-71
2021/11/07 02:07:08;;;;;;;;;;;11.00;99.90;;;;;;8366459;28;20345;-71
2021/11/07 02:11:09;;;;;;;;;;;11.10;99.90;;;;;;8379062;28;20387;-70
2021/11/07 02:15:13;;;;;;;;;;;11.10;99.90;;;;;;8370417;28;19924;-71
2021/11/07 02:19:16;;;;;;;;;;;11.10;99.90;;;;;;8368657;28;19928;-71
2021/11/07 02:23:19;;;;;;;;;;;11.10;99.90;;;;;;8378551;28;19920;-71
2021/11/07 02:27:21;;;;;;;;;;;11.10;99.90;;;;;;8369939;28;19921;-70
2021/11/07 02:31:22;;;;;;;;;;;11.20;99.90;;;;;;8369365;28;19928;-71
2021/11/07 02:35:26;;;;;;;;;;;11.20;99.90;;;;;;8388320;28;19928;-71
2021/11/07 02:39:28;;;;;;;;;;;11.20;99.90;;;;;;8369410;28;20309;-70
2021/11/07 02:43:39;;;;;;;;;;;11.20;99.90;;;;;;8374027;28;20274;-70
2021/11/07 02:47:41;;;;;;;;;;;11.20;99.90;;;;;;8375076;28;19927;-70
2021/11/07 02:51:43;;;;;;;;;;;11.20;99.90;;;;;;8374004;28;19927;-70
2021/11/07 02:55:44;;;;;;;;;;;11.30;99.90;;;;;;8382821;28;19924;-70
2021/11/07 02:59:49;;;;;;;;;;;11.30;99.90;;;;;;8365122;28;20446;-70
2021/11/07 03:03:54;;;;;;;;;;;11.30;99.90;;;;;;8364505;28;20410;-71
2021/11/07 03:07:56;;;;;;;;;;;11.40;99.90;;;;;;8367454;28;19950;-70
2021/11/07 03:11:58;;;;;;;;;;;11.40;99.90;;;;;;8383197;28;19920;-70
2021/11/07 03:16:07;;;;;;;;;;;11.40;99.90;;;;;;8371521;28;19920;-70
2021/11/07 03:20:10;;;;;;;;;;;11.50;99.90;;;;;;8373388;28;19928;-70
2021/11/07 03:24:13;;;;;;;;;;;11.50;99.90;;;;;;8357187;28;19921;-70
2021/11/07 03:28:15;;;;;;;;;;;11.50;99.90;;;;;;8363081;28;19928;-70
2021/11/07 03:32:23;;;;;;;;;;;11.50;99.90;;;;;;8367024;28;20265;-70
2021/11/07 03:36:24;;;;;;;;;;;11.40;99.90;;;;;;8376595;28;19928;-71
2021/11/07 03:40:27;;;;;;;;;;;11.30;99.90;;;;;;8368500;28;19966;-70
2021/11/07 03:44:29;;;;;;;;;;;11.10;99.90;;;;;;8372513;28;19929;-70
2021/11/07 03:48:32;;;;;;;;;;;11.00;99.90;;;;;;8371849;28;20437;-70
2021/11/07 03:52:33;;;;;;;;;;;11.00;99.90;;;;;;8381020;28;20253;-70
2021/11/07 03:56:35;;;;;;;;;;;11.00;99.90;;;;;;8370688;28;19924;-70
2021/11/07 04:00:37;;;;;;;;;;;10.90;99.90;;;;;;8359137;28;19924;-70
2021/11/07 04:04:39;;;;;;;;;;;10.90;99.90;;;;;;8349538;28;19932;-70
2021/11/07 04:08:41;;;;;;;;;;;10.90;99.90;;;;;;8366310;28;19943;-71
2021/11/07 04:12:43;;;;;;;;;;;10.90;99.90;;;;;;8374882;28;19927;-71
2021/11/07 04:16:45;;;;;;;;;;;10.80;99.90;;;;;;8359848;28;19924;-71
2021/11/07 04:20:46;;;;;;;;;;;10.80;99.90;;;;;;8388320;28;19931;-71
2021/11/07 04:24:48;;;;;;;;;;;10.70;99.90;;;;;;8364711;28;19921;-71
2021/11/07 04:28:50;;;;;;;;;;;10.70;99.90;;;;;;8379483;28;19939;-71
2021/11/07 04:32:51;;;;;;;;;;;10.60;99.90;;;;;;8367244;28;19920;-71
2021/11/07 04:36:53;;;;;;;;;;;10.60;99.90;;;;;;8371250;28;20236;-71
2021/11/07 04:40:55;;;;;;;;;;;10.60;99.90;;;;;;8355279;28;20007;-71
2021/11/07 04:44:57;;;;;;;;;;;10.60;99.90;;;;;;8369200;28;19978;-71
2021/11/07 04:48:59;;;;;;;;;;;10.60;99.90;;;;;;8376588;28;19920;-70
2021/11/07 04:53:04;;;;;;;;;;;10.60;99.90;;;;;;8371000;28;19931;-71
2021/11/07 04:57:06;;;;;;;;;;;10.60;99.90;;;;;;8363807;28;19935;-71
2021/11/07 05:01:07;;;;;;;;;;;10.50;99.90;;;;;;8356437;28;19927;-71
2021/11/07 05:05:09;;;;;;;;;;;10.50;99.90;;;;;;8367189;28;19921;-71
2021/11/07 05:09:10;;;;;;;;;;;10.40;99.90;;;;;;8344452;28;19921;-71
2021/11/07 05:13:12;;;;;;;;;;;10.40;99.90;;;;;;8341913;28;19921;-71
2021/11/07 05:17:14;;;;;;;;;;;10.30;99.90;;;;;;8372281;28;19920;-71
2021/11/07 05:21:16;;;;;;;;;;;10.30;99.90;;;;;;8358590;28;20329;-71
2021/11/07 05:25:17;;;;;;;;;;;10.20;99.90;;;;;;8372356;28;19920;-71
2021/11/07 05:29:19;;;;;;;;;;;10.20;99.90;;;;;;8363067;28;19921;-71
2021/11/07 05:33:21;;;;;;;;;;;10.20;99.90;;;;;;8366165;28;20421;-70
2021/11/07 05:37:24;;;;;;;;;;;10.20;99.90;;;;;;8377141;28;20015;-71
2021/11/07 05:41:25;;;;;;;;;;;10.20;99.90;;;;;;8364840;28;19940;-71
2021/11/07 05:45:27;;;;;;;;;;;10.20;99.90;;;;;;8363930;28;19924;-71
2021/11/07 05:49:29;;;;;;;;;;;10.20;99.90;;;;;;8362492;28;20016;-70
2021/11/07 05:53:31;;;;;;;;;;;10.10;99.90;;;;;;8345693;28;19979;-72
2021/11/07 05:57:32;;;;;;;;;;;10.10;99.90;;;;;;8354642;28;19931;-72
2021/11/07 06:01:35;;;;;;;;;;;10.00;99.90;;;;;;8366659;28;19932;-71
2021/11/07 06:05:37;;;;;;;;;;;10.00;99.90;;;;;;8358756;28;19966;-71
2021/11/07 06:09:39;;;;;;;;;;;9.90;99.90;;;;;;8370723;28;20354;-71
2021/11/07 06:13:41;;;;;;;;;;;9.90;99.90;;;;;;8362230;28;19921;-71
2021/11/07 06:17:43;;;;;;;;;;;9.80;99.90;;;;;;8365498;28;19925;-72
2021/11/07 06:21:46;;;;;;;;;;;9.80;99.90;;;;;;8360807;28;20356;-71
2021/11/07 06:25:47;;;;;;;;;;;9.80;99.90;;;;;;8377516;28;19920;-72
2021/11/07 06:29:50;;;;;;;;;;;9.80;99.90;;;;;;8365019;28;19921;-72
2021/11/07 06:33:51;;;;;;;;;;;9.80;99.90;;;;;;8393117;28;19927;-72
2021/11/07 06:37:53;;;;;;;;;;;9.70;99.90;;;;;;8366982;28;20287;-71
2021/11/07 06:41:55;;;;;;;;;;;9.70;99.90;;;;;;8363635;28;19927;-72
2021/11/07 06:45:57;;;;;;;;;;;9.70;99.90;;;;;;8397692;28;20008;-71
2021/11/07 06:49:58;;;;;;;;;;;9.70;99.90;;;;;;8379757;28;19920;-71
2021/11/07 06:54:00;;;;;;;;;;;9.60;99.90;;;;;;8378413;28;20347;-71
2021/11/07 06:58:02;;;;;;;;;;;9.60;99.90;;;;;;8347938;28;20140;-72
2021/11/07 07:02:03;;;;;;;;;;;9.60;99.90;;;;;;8379757;28;19920;-71
2021/11/07 07:06:06;;;;;;;;;;;9.60;99.90;;;;;;8377461;28;19935;-71
2021/11/07 07:10:11;;;;;;;;;;;9.60;99.90;;;;;;8366892;28;19921;-71
2021/11/07 07:14:22;;;;;;;;;;;9.60;99.90;;;;;;8368288;28;19936;-72
2021/11/07 07:18:48;;;;;;;;;;;9.50;99.90;;;;;;8381200;28;19941;-71
2021/11/07 07:35:12;;;;;;;;;;;9.60;99.90;;;;;;8354093;28;20265;-71
2021/11/07 07:39:13;;;;;;;;;;;9.70;99.90;;;;;;8367138;28;19921;-71
2021/11/07 07:43:15;;;;;;;;;;;9.70;99.90;;;;;;8368601;28;19930;-71
2021/11/07 07:47:17;;;;;;;;;;;9.80;99.90;;;;;;8368086;28;19927;-71
2021/11/07 07:51:19;;;;;;;;;;;9.90;99.90;;;;;;8364002;28;19928;-71
2021/11/07 07:55:21;;;;;;;;;;;10.00;99.90;;;;;;8336410;28;19928;-71
2021/11/07 07:59:22;;;;;;;;;;;10.10;99.90;;;;;;8329533;28;20439;-72
2021/11/07 08:03:24;;;;;;;;;;;10.10;99.90;;;;;;8328515;28;19932;-72
2021/11/07 08:07:27;;;;;;;;;;;10.20;99.90;;;;;;8346120;28;19928;-71
2021/11/07 08:11:28;;;;;;;;;;;10.30;99.90;;;;;;8341240;28;19944;-72
2021/11/07 08:15:30;;;;;;;;;;;10.40;99.90;;;;;;8324214;28;19925;-71
2021/11/07 08:19:32;;;;;;;;;;;10.40;99.90;;;;;;8329689;28;19925;-72
2021/11/07 08:23:34;;;;;;;;;;;10.60;99.90;;;;;;8327199;28;19925;-72
2021/11/07 08:27:37;;;;;;;;;;;10.80;99.90;;;;;;8327853;28;19928;-71
2021/11/07 08:31:39;;;;;;;;;;;10.90;99.90;;;;;;8325308;28;19920;-71
2021/11/07 08:35:43;;;;;;;;;;;10.90;99.90;;;;;;8327875;28;19921;-71
2021/11/07 08:39:49;;;;;;;;;;;10.90;99.90;;;;;;8326732;28;19928;-71
2021/11/07 09:10:18;;;;;;;;;;;11.80;99.90;;;;;;8325920;28;19925;-72
2021/11/07 09:14:22;;;;;;;;;;;12.00;99.90;;;;;;8343019;28;19925;-72
2021/11/07 09:18:25;;;;;;;;;;;12.20;99.90;;;;;;8325857;28;20266;-72
2021/11/07 09:22:36;;;;;;;;;;;12.30;99.90;;;;;;8323703;28;20292;-72
2021/11/07 09:26:44;;;;;;;;;;;12.30;99.90;;;;;;8323546;28;20032;-71
2021/11/07 09:35:10;;;;;;;;;;;12.30;99.90;;;;;;8322480;28;19921;-71
2021/11/07 09:43:37;;;;;;;;;;;12.20;99.90;;;;;;8322318;28;19925;-72
2021/11/07 09:47:43;;;;;;;;;;;12.20;99.90;;;;;;8339017;28;19928;-71
2021/11/07 09:51:49;;;;;;;;;;;12.30;99.90;;;;;;8324077;28;19929;-72
2021/11/07 09:55:51;;;;;;;;;;;12.40;99.90;;;;;;8338369;28;20257;-72
2021/11/07 09:59:56;;;;;;;;;;;12.60;99.90;;;;;;8323350;28;19928;-71
2021/11/07 10:03:59;;;;;;;;;;;12.90;99.90;;;;;;8324619;28;19925;-71
2021/11/07 10:08:05;;;;;;;;;;;13.20;99.90;;;;;;8331858;28;19921;-72
2021/11/07 10:12:10;;;;;;;;;;;13.40;99.90;;;;;;8323233;28;19932;-72
2021/11/07 10:16:14;;;;;;;;;;;13.50;99.90;;;;;;8326972;28;19966;-72
2021/11/07 10:20:37;;;;;;;;;;;13.50;99.90;;;;;;8330454;28;19953;-71
2021/11/07 10:24:39;;;;;;;;;;;13.60;99.90;;;;;;8343159;28;19921;-72
2021/11/07 10:41:36;;;;;;;;;;;13.70;99.90;;;;;;8327140;28;19925;-72
2021/11/07 10:54:24;;;;;;;;;;;14.50;99.90;;;;;;8329520;28;19920;-72
2021/11/07 10:58:33;;;;;;;;;;;14.30;99.90;;;;;;8326390;28;19929;-72
2021/11/07 11:02:42;;;;;;;;;;;14.20;99.90;;;;;;8328144;28;19921;-72
2021/11/07 11:06:53;;;;;;;;;;;14.20;99.90;;;;;;8325041;28;20268;-71
2021/11/07 11:11:10;;;;;;;;;;;14.60;99.90;;;;;;8343229;28;19928;-71
2021/11/07 11:15:23;;;;;;;;;;;14.80;99.90;;;;;;8332043;28;19925;-72
2021/11/07 11:23:39;;;;;;;;;;;15.00;99.90;;;;;;8323455;28;20440;-72
2021/11/07 11:28:13;;;;;;;;;;;14.50;99.90;;;;;;8324130;28;19920;-72
2021/11/07 11:32:21;;;;;;;;;;;13.70;99.90;;;;;;8327306;28;19951;-71
2021/11/07 11:36:29;;;;;;;;;;;12.90;99.90;;;;;;8332452;28;19935;-71
2021/11/07 11:40:57;;;;;;;;;;;12.10;99.90;;;;;;8339648;28;20369;-72
2021/11/07 11:44:58;;;;;;;;;;;11.50;99.90;;;;;;8349152;28;19924;-71
2021/11/07 12:01:39;;;;;;;;;;;10.90;99.90;;;;;;8336672;28;19962;-71
2021/11/07 12:05:55;;;;;;;;;;;10.90;99.90;;;;;;8352676;28;19921;-71
2021/11/07 12:10:00;;;;;;;;;;;10.90;99.90;;;;;;8350966;28;19932;-71
2021/11/07 12:18:10;;;;;;;;;;;11.00;99.90;;;;;;8339458;28;19927;-71
2021/11/07 12:22:15;;;;;;;;;;;11.00;99.90;;;;;;8328081;28;19925;-70
2021/11/07 12:26:20;;;;;;;;;;;11.00;99.90;;;;;;8352985;28;19921;-71
2021/11/07 12:30:24;;;;;;;;;;;10.80;99.90;;;;;;8332665;28;19929;-70
2021/11/07 12:34:45;;;;;;;;;;;10.70;99.90;;;;;;8330451;28;19925;-70
2021/11/07 12:43:12;;;;;;;;;;;10.30;99.90;;;;;;8335947;28;20043;-70
2021/11/07 12:47:14;;;;;;;;;;;10.40;99.90;;;;;;8337601;28;19928;-70
2021/11/07 12:51:18;;;;;;;;;;;10.50;99.90;;;;;;8363220;28;19920;-71
2021/11/07 12:55:27;;;;;;;;;;;11.00;99.90;;;;;;8338623;28;19924;-71
2021/11/07 12:59:34;;;;;;;;;;;11.20;99.90;;;;;;8350581;28;19925;-70
2021/11/07 13:03:36;;;;;;;;;;;11.20;99.90;;;;;;8330118;28;19921;-70
2021/11/07 13:11:49;;;;;;;;;;;11.10;99.90;;;;;;8330414;28;20015;-70
2021/11/07 13:20:12;;;;;;;;;;;11.00;99.90;;;;;;8333999;28;19924;-71
2021/11/07 13:28:30;;;;;;;;;;;11.00;99.90;;;;;;8323736;28;19925;-71
2021/11/07 13:32:34;;;;;;;;;;;11.10;99.90;;;;;;8352154;28;20200;-71
2021/11/07 13:36:43;;;;;;;;;;;11.20;99.90;;;;;;8321288;28;20369;-71
2021/11/07 13:40:45;;;;;;;;;;;11.50;99.90;;;;;;8323531;28;19927;-71
2021/11/07 13:44:55;;;;;;;;;;;11.70;99.90;;;;;;8336133;28;19921;-71
2021/11/07 13:49:02;;;;;;;;;;;11.80;99.90;;;;;;8326078;28;19936;-71
2021/11/07 13:53:04;;;;;;;;;;;11.80;99.90;;;;;;8329583;28;19921;-71
2021/11/07 13:57:06;;;;;;;;;;;11.80;99.90;;;;;;8329516;28;19967;-71
2021/11/07 14:01:12;;;;;;;;;;;11.90;99.90;;;;;;8330587;28;20013;-71
2021/11/07 14:05:14;;;;;;;;;;;11.90;99.90;;;;;;8325426;28;20133;-71
2021/11/07 14:09:18;;;;;;;;;;;11.90;99.90;;;;;;8329870;28;19927;-71
2021/11/07 14:13:20;;;;;;;;;;;11.90;99.90;;;;;;8343713;28;19925;-71
2021/11/07 14:17:26;;;;;;;;;;;11.80;99.90;;;;;;8328306;28;20266;-71
2021/11/07 14:21:36;;;;;;;;;;;11.80;99.90;;;;;;8328976;28;19929;-71
2021/11/07 14:25:45;;;;;;;;;;;11.80;99.90;;;;;;8327076;28;19925;-71
2021/11/07 14:29:57;;;;;;;;;;;12.00;99.90;;;;;;8328734;28;19965;-71
2021/11/07 14:34:12;;;;;;;;;;;12.40;99.90;;;;;;8327793;28;19924;-71
2021/11/07 14:38:25;;;;;;;;;;;12.80;99.90;;;;;;8334196;28;20301;-71
2021/11/07 14:46:42;;;;;;;;;;;12.40;99.90;;;;;;8326262;28;19925;-71
2021/11/07 14:55:16;;;;;;;;;;;12.00;99.90;;;;;;8334609;28;19925;-71
2021/11/07 14:59:27;;;;;;;;;;;11.80;99.90;;;;;;8330568;28;19929;-71
2021/11/07 15:03:45;;;;;;;;;;;11.60;99.90;;;;;;8340518;28;20407;-71
2021/11/07 15:07:56;;;;;;;10.10;1.80;;;11.40;99.90;;;;;;8324841;28;19921;-72
2021/11/07 15:12:38;;;;;;;;;;;11.00;99.90;;;;;;8333739;28;20060;-71
2021/11/07 15:16:51;;;;;;;;;;;10.70;99.90;;;;;;8317737;28;19932;-71
2021/11/07 15:21:01;;;;;;;;;;;10.40;99.90;;;;;;8326658;28;20415;-71
2021/11/07 15:25:06;;;;;;;;;;;10.10;99.90;;;;;;8354259;28;19991;-71
2021/11/07 15:29:08;;;;;;;;;;;10.00;99.90;;;;;;8327208;28;19948;-72
2021/11/07 15:33:13;;;;;;;;;;;9.90;99.90;;;;;;8321574;28;20018;-71
2021/11/07 15:37:23;;;;;;;;;;;9.80;99.90;;;;;;8319265;28;19929;-71
2021/11/07 15:41:25;;;;;;;;;;;9.80;99.90;;;;;;8317327;28;19936;-72
2021/11/07 15:45:27;;;;;;;;;;;9.90;99.90;;;;;;8325437;28;20027;-71
2021/11/07 15:49:33;;;;;;;;;;;9.90;99.90;;;;;;8334425;28;20269;-71
2021/11/07 15:54:01;;;;;;;;;;;10.00;99.90;;;;;;8323693;28;19959;-71
2021/11/07 16:11:23;;;;;;;;;;;;;;;;;;;;;
2021/11/07 16:19:22;;;;;;;;;;;9.90;99.90;;;;;;8323695;28;19921;-71
2021/11/07 16:23:23;;;;;;;;;;;9.90;99.90;;;;;;8318500;28;19925;-71
2021/11/07 16:27:25;;;;;;;;;;;9.90;99.90;;;;;;8355365;28;19929;-71
2021/11/07 16:31:32;;;;;;;;;;;9.90;99.90;;;;;;8332108;28;19986;-71
2021/11/07 16:39:48;;;;;;;;;;;9.80;99.90;;;;;;8335697;28;19952;-72
2021/11/07 16:43:51;;;;;;;;;;;9.70;99.90;;;;;;8357776;28;19920;-72
2021/11/07 16:47:58;;;;;;;;;;;9.60;99.90;;;;;;8356107;28;19924;-72
2021/11/07 16:52:10;;;;;;;;;;;9.50;99.90;;;;;;8358353;28;19928;-71
2021/11/07 16:56:13;;;;;;;;;;;9.50;99.90;;;;;;8336646;28;19936;-71
2021/11/07 17:00:41;;;;;;;;;;;9.50;99.90;;;;;;8339799;28;19932;-71
2021/11/07 17:04:51;;;;;;;;;;;9.50;99.90;;;;;;8338192;28;19931;-71
2021/11/07 17:13:21;;;;;;;;;;;9.50;99.90;;;;;;8351061;28;20292;-71
2021/11/07 17:22:06;;;;;;;;;;;9.60;99.90;;;;;;8328045;28;20625;-71
2021/11/07 17:26:17;;;;;;;;;;;9.60;99.90;;;;;;8331570;28;20160;-71
2021/11/07 17:30:25;;;;;;;;;;;9.70;99.90;;;;;;8342697;28;19955;-71
2021/11/07 17:39:10;;;;;;;;;;;9.60;99.90;;;;;;8340515;28;19924;-71
2021/11/07 17:56:17;;;;;;;;;;;9.40;99.90;;;;;;8341293;28;19927;-72
2021/11/07 18:00:20;;;;;;;;;;;9.40;99.90;;;;;;8366331;28;19928;-71
2021/11/07 18:04:21;;;;;;;;;;;9.40;99.90;;;;;;8343243;28;19925;-71
2021/11/07 18:08:25;;;;;;;;;;;9.30;99.90;;;;;;8359016;28;19920;-71
2021/11/07 18:12:29;;;;;;;;;;;9.30;99.90;;;;;;8384325;28;19959;-71
2021/11/07 18:16:31;;;;;;;;;;;9.20;99.90;;;;;;8346680;28;19925;-71
2021/11/07 18:20:34;;;;;;;;;;;9.20;99.90;;;;;;8343171;28;19928;-71
2021/11/07 18:24:41;;;;;;;;;;;9.20;99.90;;;;;;8346319;28;20228;-72
2021/11/07 18:28:43;;;;;;;;;;;9.20;99.90;;;;;;8357774;28;20383;-72
2021/11/07 18:32:45;;;;;;;;;;;9.10;99.90;;;;;;8352265;28;19925;-71
2021/11/07 18:36:47;;;;;;;;;;;9.20;99.90;;;;;;8356807;28;19929;-71
2021/11/07 18:40:49;;;;;;;;;;;9.20;99.90;;;;;;8363578;28;19921;-72
2021/11/07 18:44:51;;;;;;;;;;;9.20;99.90;;;;;;8347159;28;19932;-71
2021/11/07 18:48:53;;;;;;;;;;;9.10;99.90;;;;;;8359328;28;20369;-71
2021/11/07 18:52:55;;;;;;;;;;;9.10;99.90;;;;;;8345683;28;19926;-71
2021/11/07 18:56:57;;;;;;;;;;;9.10;99.90;;;;;;8363468;28;19978;-71
2021/11/07 19:00:59;;;;;;;;;;;9.10;99.90;;;;;;8363914;28;19969;-71
2021/11/07 19:05:00;;;;;;;;;;;9.10;99.90;;;;;;8362431;28;19924;-72
2021/11/07 19:09:03;;;;;;;;;;;9.10;99.90;;;;;;8363785;28;20284;-71
2021/11/07 19:13:05;;;;;;;;;;;9.10;99.90;;;;;;8360516;28;19932;-72
2021/11/07 19:17:07;;;;;;;;;;;9.00;99.90;;;;;;8353907;28;19921;-72
2021/11/07 19:21:09;;;;;;;;;;;9.00;99.90;;;;;;8347074;28;19928;-71
2021/11/07 19:25:10;;;;;;;;;;;8.90;99.90;;;;;;8353505;28;19929;-71
2021/11/07 19:29:12;;;;;;;;;;;8.80;99.90;;;;;;8365133;28;20343;-71
2021/11/07 19:33:16;;;;;;;;;;;8.70;99.90;;;;;;8351892;28;19935;-71
2021/11/07 19:37:18;;;;;;;;;;;8.70;99.90;;;;;;8347068;28;19986;-72
2021/11/07 19:41:21;;;;;;;;;;;8.60;99.90;;;;;;8357740;28;19928;-72
2021/11/07 19:45:24;;;;;;;;;;;8.60;99.90;;;;;;8347122;28;19928;-71
2021/11/07 19:49:30;;;;;;;;;;;8.50;99.90;;;;;;8360217;28;19929;-71
2021/11/07 19:53:31;;;;;;;;;;;8.40;99.90;;;;;;8356018;28;19979;-71
2021/11/07 19:57:34;;;;;;;;;;;8.30;99.90;;;;;;8360874;28;19924;-71
2021/11/07 20:05:50;;;;;;;;;;;8.10;99.90;;;;;;8366478;28;19966;-71
2021/11/07 20:09:52;;;;;;;;;;;8.10;99.90;;;;;;8353566;28;19920;-71
2021/11/07 20:13:55;;;;;;;;;;;8.00;99.90;;;;;;8361447;28;19928;-71
2021/11/07 20:17:56;;;;;;;;;;;8.00;99.90;;;;;;8357208;28;19921;-71
2021/11/07 20:21:58;;;;;;;;;;;7.90;99.90;;;;;;8341287;28;19969;-71
2021/11/07 20:26:00;;;;;;;;;;;7.80;99.90;;;;;;8351103;28;19946;-71
2021/11/07 20:30:02;;;;;;;;;;;7.70;99.90;;;;;;8345289;28;20289;-71
2021/11/07 20:34:09;;;;;;;;;;;7.70;99.90;;;;;;8339965;28;20400;-71
2021/11/07 20:38:18;;;;;;;;;;;7.60;99.90;;;;;;8336101;28;20339;-71
2021/11/07 20:42:23;;;;;;;;;;;7.50;99.90;;;;;;8344390;28;19920;-71
2021/11/07 20:47:03;;;;;;;;;;;7.50;99.90;;;;;;8339709;28;19928;-71
2021/11/07 20:55:03;;;;;;;;;;;7.50;99.90;;;;;;8341591;28;19928;-71
2021/11/07 20:59:23;;;;;;;;;;;7.40;99.90;;;;;;8339800;28;19921;-72
2021/11/07 21:03:39;;;;;;;;;;;7.40;99.90;;;;;;8339680;28;20297;-71
2021/11/07 21:12:11;;;;;;;;;;;7.20;99.90;;;;;;8347439;28;20215;-72
2021/11/07 21:29:05;;;;;;;;;;;7.00;99.90;;;;;;8340915;28;19940;-71
2021/11/07 21:33:18;;;;;;;;;;;7.00;99.90;;;;;;8363991;28;20014;-71
2021/11/07 21:45:43;;;;;;;;;;;6.90;99.90;;;;;;8349677;28;19920;-71
2021/11/07 21:49:45;;;;;;;;;;;6.90;99.90;;;;;;8360756;28;19928;-71
2021/11/07 21:53:47;;;;;;;;;;;7.00;99.90;;;;;;8349884;28;19936;-71
2021/11/07 21:57:49;;;;;;;;;;;7.00;99.90;;;;;;8358157;28;20023;-71
2021/11/07 22:01:51;;;;;;;;;;;7.00;99.90;;;;;;8355787;28;20232;-70
2021/11/07 22:05:55;;;;;;;;;;;7.10;99.90;;;;;;8348831;28;19924;-71
2021/11/07 22:10:05;;;;;;;;;;;7.10;99.90;;;;;;8369402;28;19935;-70
2021/11/07 22:14:09;;;;;;;;;;;7.20;99.90;;;;;;8358992;28;20265;-71
2021/11/07 22:18:14;;;;;;;;;;;7.20;99.90;;;;;;8349298;28;19921;-71
2021/11/07 22:22:25;;;;;;;;;;;7.30;99.90;;;;;;8344081;28;20266;-72
2021/11/07 22:26:30;;;;;;;;;;;7.30;99.90;;;;;;8352823;28;19921;-71
2021/11/07 22:30:31;;;;;;;;;;;7.30;99.90;;;;;;8370697;28;19928;-71
2021/11/07 22:34:37;;;;;;;;;;;7.30;99.90;;;;;;8355358;28;19920;-71
2021/11/07 22:38:40;;;;;;;;;;;7.30;99.90;;;;;;8374003;28;19920;-71
2021/11/07 22:42:44;;;;;;;;;;;7.20;99.90;;;;;;8354807;28;19925;-71
2021/11/07 22:46:45;;;;;;;;;;;7.20;99.90;;;;;;8363270;28;20275;-70
2021/11/07 22:50:54;;;;;;;;;;;7.10;99.90;;;;;;8359135;28;20233;-71
2021/11/07 22:55:15;;;;;;;;;;;7.10;99.90;;;;;;8363325;28;19920;-71
2021/11/07 23:07:24;;;;;;;;;;;7.20;99.90;;;;;;8347179;28;19921;-71
2021/11/07 23:11:27;;;;;;;;;;;7.30;99.90;;;;;;8352997;28;19920;-71
2021/11/07 23:15:34;;;;;;;;;;;7.30;99.90;;;;;;8358482;28;19927;-72
2021/11/07 23:19:42;;;;;;;;;;;7.40;99.90;;;;;;8364757;28;20280;-70
2021/11/07 23:23:44;;;;;;;;;;;7.50;99.90;;;;;;8367265;28;20412;-70
2021/11/07 23:27:45;;;;;;;;;;;7.50;99.90;;;;;;8349537;28;19934;-71
2021/11/07 23:31:47;;;;;;;;;;;7.60;99.90;;;;;;8360925;28;19920;-71
2021/11/07 23:35:51;;;;;;;;;;;7.60;99.90;;;;;;8362675;28;20300;-71
2021/11/07 23:39:55;;;;;;;;;;;7.60;99.90;;;;;;8363962;28;19928;-71
2021/11/07 23:43:58;;;;;;;;;;;7.40;99.90;;;;;;8363903;28;19974;-71
2021/11/07 23:48:03;;;;;;;;;;;7.40;99.90;;;;;;8362467;28;19926;-71
2021/11/07 23:56:25;;;;;;;;;;;7.20;99.90;;;;;;8352249;28;19925;-71
